createdAt,value
2023-03-16T00:00:20.148Z,10.57
2023-03-16T00:03:22.156Z,6.55
2023-03-16T00:06:25.667Z,8.05
2023-03-16T00:09:31.367Z,10.43
2023-03-16T00:12:34.910Z,6.03
2023-03-16T00:15:36.645Z,11.10
2023-03-16T00:18:41.230Z,10.02
2023-03-16T00:21:43.090Z,6.78
2023-03-16T00:24:44.823Z,8.18
2023-03-16T00:27:46.582Z,7.53
2023-03-16T00:30:48.640Z,9.18
2023-03-16T00:33:51.111Z,11.40
2023-03-16T00:36:52.933Z,8.05
2023-03-16T00:39:57.963Z,8.82
2023-03-16T00:42:59.697Z,7.80
2023-03-16T00:46:06.813Z,8.85
2023-03-16T00:49:09.493Z,8.80
2023-03-16T00:52:15.791Z,12.07
2023-03-16T00:55:18.748Z,6.78
2023-03-16T00:58:20.455Z,11.15
2023-03-16T01:01:22.137Z,9.82
2023-03-16T01:04:23.879Z,7.72
2023-03-16T01:07:25.733Z,9.05
2023-03-16T01:10:27.836Z,8.70
2023-03-16T01:13:30.087Z,7.88
2023-03-16T01:16:33.927Z,10.15
2023-03-16T01:19:37.365Z,10.10
2023-03-16T01:22:39.265Z,8.18
2023-03-16T01:25:41.338Z,10.30
2023-03-16T01:28:44.505Z,9.57
2023-03-16T01:31:46.403Z,9.98
2023-03-16T01:34:48.609Z,7.68
2023-03-16T01:37:51.598Z,11.13
2023-03-16T01:40:58.152Z,9.65
2023-03-16T01:44:00.013Z,10.07
2023-03-16T01:47:03.116Z,10.35
2023-03-16T01:50:06.617Z,9.70
2023-03-16T01:53:11.973Z,7.45
2023-03-16T01:56:18.772Z,9.30
2023-03-16T01:59:23.798Z,8.50
2023-03-16T02:02:30.063Z,8.57
2023-03-16T02:05:43.720Z,8.48
2023-03-16T02:08:50.274Z,10.40
2023-03-16T02:11:54.432Z,8.95
2023-03-16T02:14:57.365Z,7.15
2023-03-16T02:18:00.407Z,9.57
2023-03-16T02:21:21.386Z,11.82
2023-03-16T02:24:23.314Z,8.68
2023-03-16T02:27:35.282Z,8.73
2023-03-16T02:30:37.458Z,8.68
2023-03-16T02:33:41.664Z,8.52
2023-03-16T02:36:46.597Z,8.73
2023-03-16T02:39:48.454Z,10.65
2023-03-16T02:43:06.807Z,7.60
2023-03-16T02:46:15.032Z,11.27
2023-03-16T02:49:27.332Z,9.63
2023-03-16T02:52:29.417Z,8.10
2023-03-16T02:55:31.230Z,11.23
2023-03-16T02:58:33.207Z,9.65
2023-03-16T03:01:37.226Z,11.02
2023-03-16T03:04:38.975Z,9.52
2023-03-16T03:07:42.220Z,11.85
2023-03-16T03:10:44.062Z,10.38
2023-03-16T03:13:47.011Z,10.10
2023-03-16T03:16:53.450Z,9.93
2023-03-16T03:19:55.568Z,12.50
2023-03-16T03:22:57.276Z,12.00
2023-03-16T03:26:00.006Z,14.05
2023-03-16T03:29:02.701Z,13.20
2023-03-16T03:32:05.174Z,11.30
2023-03-16T03:35:07.592Z,13.02
2023-03-16T03:38:09.660Z,11.05
2023-03-16T03:41:11.663Z,10.50
2023-03-16T03:44:14.712Z,10.25
2023-03-16T03:47:16.598Z,10.80
2023-03-16T03:50:18.633Z,12.85
2023-03-16T03:53:34.213Z,11.20
2023-03-16T03:56:49.033Z,10.27
2023-03-16T03:59:51.675Z,10.68
2023-03-16T04:03:12.299Z,11.65
2023-03-16T04:06:18.744Z,11.23
2023-03-16T04:09:20.578Z,9.25
2023-03-16T04:12:23.027Z,11.02
2023-03-16T04:15:26.429Z,10.13
2023-03-16T04:19:06.902Z,10.75
2023-03-16T04:22:08.714Z,9.48
2023-03-16T04:25:12.554Z,8.70
2023-03-16T04:28:17.869Z,12.65
2023-03-16T04:31:22.626Z,8.60
2023-03-16T04:34:25.237Z,12.65
2023-03-16T04:37:31.125Z,14.93
2023-03-16T04:40:33.010Z,8.50
2023-03-16T04:43:43.284Z,12.15
2023-03-16T04:46:52.516Z,10.93
2023-03-16T04:49:55.903Z,11.32
2023-03-16T04:52:59.070Z,12.13
2023-03-16T04:56:02.208Z,13.45
2023-03-16T04:59:05.168Z,9.65
2023-03-16T05:02:17.805Z,9.73
2023-03-16T05:05:20.271Z,9.77
2023-03-16T05:08:22.678Z,9.82
2023-03-16T05:11:25.927Z,8.77
2023-03-16T05:14:32.545Z,12.32
2023-03-16T05:17:46.976Z,9.70
2023-03-16T05:20:51.994Z,12.68
2023-03-16T05:23:53.977Z,10.88
2023-03-16T05:26:55.991Z,9.90
2023-03-16T05:29:59.056Z,9.43
2023-03-16T05:33:02.341Z,8.40
2023-03-16T05:36:04.976Z,10.57
2023-03-16T05:39:08.734Z,12.77
2023-03-16T05:42:15.004Z,8.15
2023-03-16T05:45:24.122Z,8.82
2023-03-16T05:48:37.861Z,11.05
2023-03-16T05:51:41.258Z,10.85
2023-03-16T05:54:44.322Z,11.55
2023-03-16T05:57:46.322Z,9.40
2023-03-16T06:00:48.263Z,9.88
2023-03-16T06:03:57.254Z,9.75
2023-03-16T06:07:01.865Z,8.15
2023-03-16T06:10:06.538Z,8.50
2023-03-16T06:13:09.568Z,8.65
2023-03-16T06:16:13.934Z,13.07
2023-03-16T06:19:15.896Z,7.28
2023-03-16T06:22:18.561Z,10.45
2023-03-16T06:25:20.685Z,8.05
2023-03-16T06:28:23.265Z,9.25
2023-03-16T06:31:25.303Z,9.27
2023-03-16T06:34:27.228Z,9.65
2023-03-16T06:37:31.329Z,7.07
2023-03-16T06:40:36.450Z,7.40
2023-03-16T06:43:38.557Z,10.07
2023-03-16T06:46:40.485Z,8.02
2023-03-16T06:49:43.353Z,7.53
2023-03-16T06:52:53.126Z,7.15
2023-03-16T06:55:55.013Z,7.15
2023-03-16T06:58:57.303Z,8.18
2023-03-16T07:01:59.107Z,12.10
2023-03-16T07:05:01.225Z,12.93
2023-03-16T07:08:04.993Z,8.40
2023-03-16T07:11:07.197Z,15.13
2023-03-16T07:14:10.374Z,11.07
2023-03-16T07:17:12.196Z,9.57
2023-03-16T07:20:14.132Z,8.95
2023-03-16T07:23:18.183Z,11.20
2023-03-16T07:26:20.022Z,8.48
2023-03-16T07:29:29.429Z,8.52
2023-03-16T07:32:32.700Z,7.70
2023-03-16T07:35:35.296Z,9.20
2023-03-16T07:38:37.846Z,6.88
2023-03-16T07:41:40.485Z,6.32
2023-03-16T07:44:51.909Z,8.23
2023-03-16T07:47:53.835Z,6.18
2023-03-16T07:51:18.354Z,7.50
2023-03-16T07:54:24.382Z,8.43
2023-03-16T07:57:26.386Z,6.32
2023-03-16T08:00:28.788Z,6.38
2023-03-16T08:03:32.192Z,7.40
2023-03-16T08:06:34.069Z,6.28
2023-03-16T08:09:37.763Z,5.57
2023-03-16T08:12:42.597Z,6.22
2023-03-16T08:16:01.990Z,6.43
2023-03-16T08:19:12.041Z,5.93
2023-03-16T08:22:14.268Z,7.18
2023-03-16T08:25:22.480Z,5.78
2023-03-16T08:28:35.795Z,8.30
2023-03-16T08:31:42.966Z,6.68
2023-03-16T08:34:53.854Z,6.65
2023-03-16T08:37:56.578Z,4.55
2023-03-16T08:40:58.592Z,6.20
2023-03-16T08:44:01.066Z,6.82
2023-03-16T08:47:05.282Z,11.27
2023-03-16T08:50:10.218Z,8.85
2023-03-16T08:53:14.096Z,7.45
2023-03-16T08:56:15.824Z,7.65
2023-03-16T08:59:29.170Z,5.78
2023-03-16T09:02:31.708Z,6.43
2023-03-16T09:05:34.351Z,6.72
2023-03-16T09:08:39.197Z,6.82
2023-03-16T09:11:41.797Z,6.10
2023-03-16T09:14:43.661Z,5.38
2023-03-16T09:17:45.952Z,7.07
2023-03-16T09:20:50.433Z,9.32
2023-03-16T09:23:52.339Z,3.72
2023-03-16T09:26:54.029Z,5.65
2023-03-16T09:29:56.579Z,5.07
2023-03-16T09:32:58.880Z,7.28
2023-03-16T09:36:00.817Z,7.97
2023-03-16T09:39:03.666Z,4.82
2023-03-16T09:42:41.422Z,6.63
2023-03-16T09:45:56.648Z,5.80
2023-03-16T09:48:59.467Z,8.15
2023-03-16T09:52:30.411Z,8.38
2023-03-16T09:55:37.881Z,7.13
2023-03-16T09:58:39.690Z,7.45
2023-03-16T10:01:57.164Z,6.93
2023-03-16T10:05:12.677Z,5.22
2023-03-16T10:08:18.639Z,5.55
2023-03-16T10:11:47.247Z,4.80
2023-03-16T10:15:13.001Z,6.75
2023-03-16T10:18:21.316Z,7.43
2023-03-16T10:21:24.701Z,4.30
2023-03-16T10:24:45.012Z,3.90
2023-03-16T10:27:48.283Z,7.20
2023-03-16T10:30:55.461Z,5.50
2023-03-16T10:34:05.234Z,5.03
2023-03-16T10:37:13.702Z,5.82
2023-03-16T10:40:20.400Z,6.07
2023-03-16T10:43:22.774Z,6.38
2023-03-16T10:46:27.654Z,5.28
2023-03-16T10:49:42.340Z,7.93
2023-03-16T10:52:47.022Z,6.00
2023-03-16T10:55:50.427Z,4.00
2023-03-16T10:58:52.427Z,5.90
2023-03-16T11:01:54.645Z,6.32
2023-03-16T11:04:57.546Z,5.43
2023-03-16T11:08:02.656Z,4.30
2023-03-16T11:11:17.908Z,6.07
2023-03-16T11:14:23.463Z,6.70
2023-03-16T11:17:38.349Z,6.25
2023-03-16T11:20:40.097Z,7.47
2023-03-16T11:23:49.774Z,10.00
2023-03-16T11:26:58.717Z,6.22
2023-03-16T11:30:41.797Z,5.32
2023-03-16T11:33:43.637Z,7.13
2023-03-16T11:37:10.118Z,3.45
2023-03-16T11:40:33.307Z,7.00
2023-03-16T11:43:50.110Z,3.97
2023-03-16T11:47:14.646Z,6.65
2023-03-16T11:50:25.916Z,7.15
2023-03-16T11:53:52.554Z,6.13
2023-03-16T11:57:30.840Z,6.07
2023-03-16T12:01:10.494Z,5.10
2023-03-16T12:07:45.157Z,7.72
2023-03-16T12:10:57.166Z,3.95
2023-03-16T12:14:15.857Z,4.65
2023-03-16T12:17:25.983Z,6.75
2023-03-16T12:20:32.160Z,5.68
2023-03-16T12:23:38.783Z,5.22
2023-03-16T12:26:42.874Z,5.28
2023-03-16T12:30:14.415Z,5.40
2023-03-16T12:33:28.398Z,3.83
2023-03-16T12:36:52.876Z,4.15
2023-03-16T12:40:09.221Z,6.22
2023-03-16T12:43:11.004Z,7.25
2023-03-16T12:46:42.094Z,4.90
2023-03-16T12:49:44.259Z,4.60
2023-03-16T12:52:51.943Z,4.53
2023-03-16T12:55:53.782Z,5.75
2023-03-16T12:58:58.347Z,8.30
2023-03-16T13:02:03.726Z,4.22
2023-03-16T13:05:14.504Z,7.30
2023-03-16T13:08:18.647Z,6.82
2023-03-16T13:11:20.482Z,5.43
2023-03-16T13:14:40.515Z,5.05
2023-03-16T13:17:42.979Z,4.38
2023-03-16T13:20:57.941Z,4.50
2023-03-16T13:24:13.901Z,4.10
2023-03-16T13:27:26.787Z,6.07
2023-03-16T13:30:32.112Z,5.38
2023-03-16T13:33:37.026Z,7.65
2023-03-16T13:36:39.434Z,5.57
2023-03-16T13:39:41.750Z,5.45
2023-03-16T13:42:49.694Z,7.38
2023-03-16T13:45:52.030Z,6.15
2023-03-16T13:48:53.786Z,6.28
2023-03-16T13:51:55.626Z,3.92
2023-03-16T13:54:59.213Z,4.05
2023-03-16T13:58:01.839Z,6.57
2023-03-16T14:01:12.093Z,4.13
2023-03-16T14:04:18.710Z,3.80
2023-03-16T14:07:23.938Z,3.45
2023-03-16T14:10:35.463Z,3.25
2023-03-16T14:13:39.270Z,3.33
2023-03-16T14:16:41.202Z,4.13
2023-03-16T14:19:52.352Z,4.10
2023-03-16T14:22:54.576Z,4.10
2023-03-16T14:25:56.647Z,5.60
2023-03-16T14:29:05.277Z,5.13
2023-03-16T14:32:28.126Z,4.53
2023-03-16T14:35:41.841Z,5.32
2023-03-16T14:38:45.666Z,7.40
2023-03-16T14:41:52.437Z,5.30
2023-03-16T14:44:54.747Z,4.25
2023-03-16T14:48:04.394Z,6.97
2023-03-16T14:51:06.802Z,6.13
2023-03-16T14:54:21.849Z,4.65
2023-03-16T14:57:26.054Z,4.45
2023-03-16T15:00:30.171Z,3.28
2023-03-16T15:03:36.306Z,4.13
2023-03-16T15:06:38.288Z,3.30
2023-03-16T15:09:44.568Z,3.38
2023-03-16T15:12:50.742Z,4.45
2023-03-16T15:15:52.536Z,3.97
2023-03-16T15:18:54.386Z,3.42
2023-03-16T15:22:03.849Z,6.97
2023-03-16T15:25:36.392Z,4.25
2023-03-16T15:28:38.773Z,4.50
2023-03-16T15:31:40.929Z,5.35
2023-03-16T15:34:45.909Z,5.18
2023-03-16T15:37:48.007Z,4.85
2023-03-16T15:40:51.443Z,7.32
2023-03-16T15:43:53.863Z,7.80
2023-03-16T15:46:56.063Z,6.35
2023-03-16T15:49:57.840Z,7.85
2023-03-16T15:53:09.053Z,3.67
2023-03-16T15:56:14.019Z,5.13
2023-03-16T15:59:19.106Z,3.78
2023-03-16T16:02:32.078Z,8.18
2023-03-16T16:05:34.173Z,5.45
2023-03-16T16:08:36.012Z,5.78
2023-03-16T16:11:38.711Z,5.60
2023-03-16T16:14:41.824Z,3.80
2023-03-16T16:17:56.746Z,5.28
2023-03-16T16:21:07.209Z,6.45
2023-03-16T16:24:10.813Z,6.25
2023-03-16T16:27:12.979Z,4.95
2023-03-16T16:30:27.612Z,5.18
2023-03-16T16:33:35.057Z,5.03
2023-03-16T16:36:36.854Z,3.92
2023-03-16T16:39:38.654Z,8.55
2023-03-16T16:42:41.579Z,4.63
2023-03-16T16:45:43.750Z,8.45
2023-03-16T16:48:48.179Z,8.57
2023-03-16T16:51:50.597Z,7.82
2023-03-16T16:54:52.453Z,6.07
2023-03-16T16:57:55.056Z,7.88
2023-03-16T17:00:59.013Z,8.80
2023-03-16T17:04:02.543Z,9.25
2023-03-16T17:07:06.615Z,7.00
2023-03-16T17:10:16.378Z,6.68
2023-03-16T17:13:26.656Z,7.63
2023-03-16T17:16:32.337Z,6.15
2023-03-16T17:19:34.397Z,8.93
2023-03-16T17:22:37.224Z,6.50
2023-03-16T17:25:40.761Z,6.30
2023-03-16T17:28:47.528Z,6.18
2023-03-16T17:31:50.022Z,11.23
2023-03-16T17:34:52.254Z,7.53
2023-03-16T17:37:54.072Z,6.70
2023-03-16T17:40:56.473Z,9.77
2023-03-16T17:44:02.690Z,4.32
2023-03-16T17:47:11.504Z,7.35
2023-03-16T17:50:26.815Z,7.18
2023-03-16T17:53:28.715Z,5.63
2023-03-16T17:56:32.100Z,9.00
2023-03-16T17:59:33.775Z,6.93
2023-03-16T18:02:42.846Z,9.50
2023-03-16T18:05:46.143Z,14.95
2023-03-16T18:08:48.639Z,11.23
2023-03-16T18:11:51.393Z,16.40
2023-03-16T18:14:58.721Z,15.68
2023-03-16T18:18:01.598Z,15.37
2023-03-16T18:21:04.402Z,16.08
2023-03-16T18:24:15.866Z,16.23
2023-03-16T18:27:18.320Z,16.58
2023-03-16T18:30:20.137Z,11.80
2023-03-16T18:33:30.980Z,12.10
2023-03-16T18:36:36.145Z,12.27
2023-03-16T18:39:38.966Z,11.25
2023-03-16T18:42:41.910Z,14.80
2023-03-16T18:45:45.989Z,15.98
2023-03-16T18:48:48.605Z,14.85
2023-03-16T18:51:53.366Z,10.38
2023-03-16T18:54:55.962Z,23.95
2023-03-16T18:57:58.896Z,22.48
2023-03-16T19:01:01.802Z,23.98
2023-03-16T19:04:03.744Z,19.60
2023-03-16T19:07:10.956Z,20.52
2023-03-16T19:10:35.772Z,27.70
2023-03-16T19:13:37.620Z,20.27
2023-03-16T19:16:40.071Z,27.35
2023-03-16T19:19:42.840Z,24.92
2023-03-16T19:22:48.287Z,25.38
2023-03-16T19:25:51.580Z,24.83
2023-03-16T19:28:53.708Z,20.95
2023-03-16T19:31:56.993Z,16.92
2023-03-16T19:34:59.099Z,14.77
2023-03-16T19:38:01.239Z,11.43
2023-03-16T19:41:06.282Z,11.20
2023-03-16T19:44:20.264Z,10.45
2023-03-16T19:47:39.260Z,25.77
2023-03-16T19:50:43.172Z,31.40
2023-03-16T19:53:46.708Z,31.33
2023-03-16T19:56:50.226Z,27.88
2023-03-16T19:59:56.837Z,23.85
2023-03-16T20:02:58.970Z,19.17
2023-03-16T20:06:01.046Z,21.98
2023-03-16T20:09:02.788Z,25.98
2023-03-16T20:12:04.659Z,26.48
2023-03-16T20:15:07.221Z,28.27
2023-03-16T20:18:16.597Z,27.95
2023-03-16T20:21:18.460Z,25.73
2023-03-16T20:24:21.636Z,28.83
2023-03-16T20:27:24.581Z,26.15
2023-03-16T20:30:26.697Z,24.60
2023-03-16T20:33:28.943Z,26.05
2023-03-16T20:36:31.030Z,30.33
2023-03-16T20:39:32.890Z,27.80
2023-03-16T20:42:35.204Z,24.33
2023-03-16T20:45:37.481Z,32.72
2023-03-16T20:48:39.631Z,34.40
2023-03-16T20:51:44.555Z,35.38
2023-03-16T20:54:46.576Z,30.50
2023-03-16T20:57:49.735Z,34.13
2023-03-16T21:00:53.323Z,36.90
2023-03-16T21:03:56.162Z,33.67
2023-03-16T21:06:57.955Z,31.45
2023-03-16T21:09:59.650Z,34.97
2023-03-16T21:13:01.593Z,23.13
2023-03-16T21:16:04.811Z,29.50
2023-03-16T21:19:17.859Z,32.45
2023-03-16T21:22:34.925Z,28.23
2023-03-16T21:25:44.144Z,33.95
2023-03-16T21:28:58.176Z,23.92
2023-03-16T21:32:00.015Z,24.52
2023-03-16T21:35:01.875Z,23.10
2023-03-16T21:38:19.848Z,23.83
2023-03-16T21:41:22.113Z,22.58
2023-03-16T21:44:23.881Z,21.00
2023-03-16T21:47:28.253Z,20.98
2023-03-16T21:50:35.306Z,27.30
2023-03-16T21:53:38.426Z,18.15
2023-03-16T21:56:41.902Z,18.15
2023-03-16T21:59:43.753Z,17.88
2023-03-16T22:02:47.809Z,21.25
2023-03-16T22:05:49.878Z,16.90
2023-03-16T22:08:52.399Z,21.13
2023-03-16T22:11:54.204Z,22.05
2023-03-16T22:14:56.153Z,20.60
2023-03-16T22:18:01.813Z,41.42
2023-03-16T22:21:23.584Z,24.67
2023-03-16T22:24:30.492Z,18.13
2023-03-16T22:27:32.327Z,19.55
2023-03-16T22:30:34.186Z,17.77
2023-03-16T22:33:37.706Z,17.30
2023-03-16T22:36:39.466Z,17.95
2023-03-16T22:39:41.326Z,15.93
2023-03-16T22:42:43.182Z,18.40
2023-03-16T22:45:44.976Z,17.90
2023-03-16T22:48:47.056Z,18.27
2023-03-16T22:51:51.500Z,18.70
2023-03-16T22:54:53.432Z,24.83
2023-03-16T22:58:36.522Z,23.23
2023-03-16T23:01:43.655Z,20.17
2023-03-16T23:04:45.917Z,21.60
2023-03-16T23:07:47.852Z,18.95
2023-03-16T23:10:52.080Z,23.25
2023-03-16T23:13:54.726Z,21.55
2023-03-16T23:16:56.882Z,18.45
2023-03-16T23:19:58.623Z,22.70
2023-03-16T23:23:00.506Z,17.92
2023-03-16T23:26:02.252Z,15.15
2023-03-16T23:29:04.135Z,22.92
2023-03-16T23:32:06.413Z,30.20
2023-03-16T23:35:23.118Z,25.90
2023-03-16T23:38:24.811Z,27.80
2023-03-16T23:41:26.632Z,31.77
2023-03-16T23:44:29.245Z,21.48
2023-03-16T23:47:31.061Z,24.83
2023-03-16T23:50:35.773Z,21.33
2023-03-16T23:53:38.185Z,19.58
2023-03-16T23:56:39.942Z,16.20
2023-03-16T23:59:42.382Z,11.23
